Portada
METAR-TAF:

METAR-TAF

Aeroports :

Jerez de la Frontera, Espanya

latitud: 36-45N, longitud: 006-04W, altitud: 27 m

Observació

L'informe es va fer fa 6 hores i 39 minuts, a les 05:00 UTC
Vent 2 kt del Est
Temperatura 20°C
Humitat 68%
Pressió 1014 hPa
Visibilitat 10 km o més
sense núvols per sota de 1500 mi sense presència de cumulonimbus.

METAR: LEJR 210500Z 09002KT CAVOK 20/14 Q1014

Hora: 13:39 (11:39 UTC)

Pronòstic

L'informe es va fer fa 6 hores i 39 minuts, a les 05:00 UTC
Pronòstic vàlid del 21 a les 06 UTC al 22 a les 06 UTC
Vent 7 kt del Est/Nord-Est
Visibilitat 10 km o més
sense núvols per sota de 1500 mi sense presència de cumulonimbus.
Evolucionant progressivament
l' 21 a les 08 UTC al 21 a les 10 UTC
Vent 14 kt del Sud-Est
Evolucionant progressivament
l' 21 a les 18 UTC al 21 a les 20 UTC
Vent 3 kt amb direcció variable

TAF: LEJR 210500Z 2106/2206 07007KT CAVOK TX36/2115Z TN20/2206Z BECMG 2108/2110 13014KT BECMG 2118/2120 VRB03KT

Observacions i pronòstics meteorològics de més de 4000 aeroports (METAR i TAF).

Les estacions disponibles són els punts grocs i vermells al mapa.

Posi el ratolí al punt desitjat per veure el nom de l'estació.

Feu clic per veure les observacions i els pronòstics meteorològics.

Per canviar el mapa: feu clic els botons verds amb una creu de color negre per apropar; al botó verd amb un guió per allunyar la imatge; o en les fletxes verdes per a mapes adjacents.


METAR-TAF: